Terminal Aerodrome Forecast
Issued by NWS Chicago, IL

Home | Current Version | Previous Version | Text Only | Print | Product List | Glossary On
Versions: 1 2 3 4 5 6 7 8 9 10 11 12 13 14 15 16 17 18 19 20 21 22 23 24 25 26
000
FTUS43 KLOT 231442 AAA
TAFRFD
TAF AMD
KRFD 231442Z 2315/2412 29007KT P6SM SCT070
     FM231900 31008KT P6SM VCTS SCT040 BKN070CB
     FM232200 33006KT P6SM SCT060
     FM241100 02006KT P6SM SCT020=

USA.gov is the U.S. government's official web portal to all federal, state and local government web resources and services.